sensor_id;sensor_type;location;lat;lon;timestamp;P1;durP1;ratioP1;P2;durP2;ratioP2
57225;SDS011;43082;43.568;22.256;2023-08-06T00:01:43;5.10;;;1.80;;
57225;SDS011;43082;43.568;22.256;2023-08-06T00:04:08;4.78;;;1.60;;
57225;SDS011;43082;43.568;22.256;2023-08-06T00:06:34;4.43;;;1.55;;
57225;SDS011;43082;43.568;22.256;2023-08-06T00:08:59;5.13;;;1.60;;
57225;SDS011;43082;43.568;22.256;2023-08-06T00:11:25;6.63;;;2.03;;
57225;SDS011;43082;43.568;22.256;2023-08-06T00:13:50;4.85;;;1.40;;
57225;SDS011;43082;43.568;22.256;2023-08-06T00:16:15;5.72;;;1.60;;
57225;SDS011;43082;43.568;22.256;2023-08-06T00:18:41;6.75;;;1.60;;
57225;SDS011;43082;43.568;22.256;2023-08-06T00:21:07;4.97;;;1.50;;
57225;SDS011;43082;43.568;22.256;2023-08-06T00:23:32;4.88;;;1.70;;
57225;SDS011;43082;43.568;22.256;2023-08-06T00:25:58;3.78;;;1.70;;
57225;SDS011;43082;43.568;22.256;2023-08-06T00:28:23;5.18;;;1.30;;
57225;SDS011;43082;43.568;22.256;2023-08-06T00:30:55;5.93;;;1.55;;
57225;SDS011;43082;43.568;22.256;2023-08-06T00:33:21;4.47;;;1.83;;
57225;SDS011;43082;43.568;22.256;2023-08-06T00:35:47;5.05;;;1.50;;
57225;SDS011;43082;43.568;22.256;2023-08-06T00:38:13;4.65;;;1.60;;
57225;SDS011;43082;43.568;22.256;2023-08-06T00:40:38;4.32;;;1.52;;
57225;SDS011;43082;43.568;22.256;2023-08-06T00:43:04;4.53;;;1.40;;
57225;SDS011;43082;43.568;22.256;2023-08-06T00:45:29;3.97;;;1.60;;
57225;SDS011;43082;43.568;22.256;2023-08-06T00:47:55;4.60;;;1.40;;
57225;SDS011;43082;43.568;22.256;2023-08-06T00:50:21;4.13;;;1.50;;
57225;SDS011;43082;43.568;22.256;2023-08-06T00:52:50;5.95;;;1.52;;
57225;SDS011;43082;43.568;22.256;2023-08-06T00:55:16;4.25;;;1.52;;
57225;SDS011;43082;43.568;22.256;2023-08-06T00:57:42;4.47;;;1.38;;
57225;SDS011;43082;43.568;22.256;2023-08-06T01:00:08;5.63;;;1.55;;
57225;SDS011;43082;43.568;22.256;2023-08-06T01:02:33;4.30;;;1.52;;
57225;SDS011;43082;43.568;22.256;2023-08-06T01:05:00;4.10;;;1.40;;
57225;SDS011;43082;43.568;22.256;2023-08-06T01:07:35;3.70;;;1.30;;
57225;SDS011;43082;43.568;22.256;2023-08-06T01:15:38;6.10;;;1.80;;
57225;SDS011;43082;43.568;22.256;2023-08-06T01:18:12;4.18;;;1.70;;
57225;SDS011;43082;43.568;22.256;2023-08-06T01:20:38;5.57;;;1.55;;
57225;SDS011;43082;43.568;22.256;2023-08-06T01:23:03;5.03;;;1.70;;
57225;SDS011;43082;43.568;22.256;2023-08-06T01:26:15;4.30;;;1.50;;
57225;SDS011;43082;43.568;22.256;2023-08-06T01:28:44;5.50;;;1.88;;
57225;SDS011;43082;43.568;22.256;2023-08-06T01:31:32;4.45;;;1.60;;
57225;SDS011;43082;43.568;22.256;2023-08-06T01:34:01;6.22;;;1.63;;
57225;SDS011;43082;43.568;22.256;2023-08-06T01:36:27;3.97;;;1.50;;
57225;SDS011;43082;43.568;22.256;2023-08-06T01:38:53;6.20;;;1.95;;
57225;SDS011;43082;43.568;22.256;2023-08-06T01:41:19;8.57;;;1.90;;
57225;SDS011;43082;43.568;22.256;2023-08-06T01:43:44;7.50;;;1.85;;
57225;SDS011;43082;43.568;22.256;2023-08-06T01:46:09;8.00;;;1.73;;
57225;SDS011;43082;43.568;22.256;2023-08-06T01:48:35;5.78;;;1.80;;
57225;SDS011;43082;43.568;22.256;2023-08-06T01:51:01;6.43;;;1.70;;
57225;SDS011;43082;43.568;22.256;2023-08-06T01:53:26;4.40;;;1.40;;
57225;SDS011;43082;43.568;22.256;2023-08-06T01:55:52;4.55;;;1.40;;
57225;SDS011;43082;43.568;22.256;2023-08-06T01:58:17;4.55;;;1.60;;
57225;SDS011;43082;43.568;22.256;2023-08-06T02:00:43;6.25;;;1.40;;
57225;SDS011;43082;43.568;22.256;2023-08-06T02:03:08;6.15;;;1.73;;
57225;SDS011;43082;43.568;22.256;2023-08-06T02:05:34;7.75;;;1.83;;
57225;SDS011;43082;43.568;22.256;2023-08-06T02:07:59;12.80;;;1.98;;
57225;SDS011;43082;43.568;22.256;2023-08-06T02:10:24;7.47;;;1.80;;
57225;SDS011;43082;43.568;22.256;2023-08-06T02:12:50;7.63;;;1.83;;
57225;SDS011;43082;43.568;22.256;2023-08-06T02:15:15;7.35;;;2.00;;
57225;SDS011;43082;43.568;22.256;2023-08-06T02:17:41;7.85;;;1.63;;
57225;SDS011;43082;43.568;22.256;2023-08-06T02:20:06;6.22;;;1.77;;
57225;SDS011;43082;43.568;22.256;2023-08-06T02:22:32;5.50;;;1.45;;
57225;SDS011;43082;43.568;22.256;2023-08-06T02:24:58;6.60;;;1.77;;
57225;SDS011;43082;43.568;22.256;2023-08-06T02:27:24;6.22;;;1.73;;
57225;SDS011;43082;43.568;22.256;2023-08-06T02:29:49;3.83;;;1.40;;
57225;SDS011;43082;43.568;22.256;2023-08-06T02:32:14;5.45;;;1.58;;
57225;SDS011;43082;43.568;22.256;2023-08-06T02:34:40;6.95;;;1.80;;
57225;SDS011;43082;43.568;22.256;2023-08-06T02:37:05;4.47;;;1.60;;
57225;SDS011;43082;43.568;22.256;2023-08-06T02:39:31;6.40;;;1.50;;
57225;SDS011;43082;43.568;22.256;2023-08-06T02:41:57;5.63;;;1.50;;
57225;SDS011;43082;43.568;22.256;2023-08-06T02:44:23;5.13;;;1.58;;
57225;SDS011;43082;43.568;22.256;2023-08-06T02:46:52;10.30;;;1.80;;
57225;SDS011;43082;43.568;22.256;2023-08-06T02:49:18;6.47;;;1.63;;
57225;SDS011;43082;43.568;22.256;2023-08-06T02:51:44;5.25;;;1.40;;
57225;SDS011;43082;43.568;22.256;2023-08-06T02:54:10;7.00;;;2.22;;
57225;SDS011;43082;43.568;22.256;2023-08-06T02:56:35;4.18;;;1.45;;
57225;SDS011;43082;43.568;22.256;2023-08-06T02:59:01;5.22;;;1.35;;
57225;SDS011;43082;43.568;22.256;2023-08-06T03:01:26;3.83;;;1.30;;
57225;SDS011;43082;43.568;22.256;2023-08-06T03:03:53;6.40;;;1.52;;
57225;SDS011;43082;43.568;22.256;2023-08-06T03:06:19;4.53;;;1.27;;
57225;SDS011;43082;43.568;22.256;2023-08-06T03:08:44;5.68;;;1.33;;
57225;SDS011;43082;43.568;22.256;2023-08-06T03:11:10;5.53;;;1.33;;
57225;SDS011;43082;43.568;22.256;2023-08-06T03:13:35;5.32;;;1.48;;
57225;SDS011;43082;43.568;22.256;2023-08-06T03:16:00;4.85;;;1.83;;
57225;SDS011;43082;43.568;22.256;2023-08-06T03:18:26;6.32;;;1.50;;
57225;SDS011;43082;43.568;22.256;2023-08-06T03:20:52;6.10;;;1.38;;
57225;SDS011;43082;43.568;22.256;2023-08-06T03:23:17;8.68;;;1.50;;
57225;SDS011;43082;43.568;22.256;2023-08-06T03:25:43;4.22;;;1.40;;
57225;SDS011;43082;43.568;22.256;2023-08-06T03:28:09;4.70;;;1.23;;
57225;SDS011;43082;43.568;22.256;2023-08-06T03:30:34;7.93;;;1.30;;
57225;SDS011;43082;43.568;22.256;2023-08-06T03:33:00;6.50;;;1.40;;
57225;SDS011;43082;43.568;22.256;2023-08-06T03:35:25;8.15;;;1.40;;
57225;SDS011;43082;43.568;22.256;2023-08-06T03:37:51;4.32;;;1.40;;
57225;SDS011;43082;43.568;22.256;2023-08-06T03:40:16;5.55;;;1.38;;
57225;SDS011;43082;43.568;22.256;2023-08-06T03:42:42;6.55;;;1.45;;
57225;SDS011;43082;43.568;22.256;2023-08-06T03:45:07;5.30;;;1.23;;
57225;SDS011;43082;43.568;22.256;2023-08-06T03:47:33;3.75;;;1.23;;
57225;SDS011;43082;43.568;22.256;2023-08-06T03:49:59;5.72;;;1.40;;
57225;SDS011;43082;43.568;22.256;2023-08-06T03:52:24;6.63;;;1.50;;
57225;SDS011;43082;43.568;22.256;2023-08-06T03:54:50;7.20;;;1.70;;
57225;SDS011;43082;43.568;22.256;2023-08-06T03:57:15;5.07;;;1.50;;
57225;SDS011;43082;43.568;22.256;2023-08-06T03:59:40;5.45;;;1.40;;
57225;SDS011;43082;43.568;22.256;2023-08-06T04:02:06;4.85;;;1.20;;
57225;SDS011;43082;43.568;22.256;2023-08-06T04:04:31;5.00;;;1.25;;
57225;SDS011;43082;43.568;22.256;2023-08-06T04:06:57;3.30;;;1.10;;
57225;SDS011;43082;43.568;22.256;2023-08-06T04:09:22;6.63;;;1.42;;
57225;SDS011;43082;43.568;22.256;2023-08-06T04:11:48;4.60;;;1.20;;
57225;SDS011;43082;43.568;22.256;2023-08-06T04:14:13;3.58;;;1.10;;
57225;SDS011;43082;43.568;22.256;2023-08-06T04:16:39;5.65;;;1.40;;
57225;SDS011;43082;43.568;22.256;2023-08-06T04:19:04;7.15;;;1.40;;
57225;SDS011;43082;43.568;22.256;2023-08-06T04:21:29;6.75;;;1.23;;
57225;SDS011;43082;43.568;22.256;2023-08-06T04:23:55;6.45;;;1.60;;
57225;SDS011;43082;43.568;22.256;2023-08-06T04:26:21;5.72;;;1.38;;
57225;SDS011;43082;43.568;22.256;2023-08-06T04:28:47;6.72;;;1.38;;
57225;SDS011;43082;43.568;22.256;2023-08-06T04:31:12;3.45;;;1.38;;
57225;SDS011;43082;43.568;22.256;2023-08-06T04:33:38;3.63;;;0.90;;
57225;SDS011;43082;43.568;22.256;2023-08-06T04:36:03;4.88;;;1.20;;
57225;SDS011;43082;43.568;22.256;2023-08-06T04:38:29;4.28;;;1.38;;
57225;SDS011;43082;43.568;22.256;2023-08-06T04:40:55;5.03;;;1.38;;
57225;SDS011;43082;43.568;22.256;2023-08-06T04:43:20;3.45;;;1.27;;
57225;SDS011;43082;43.568;22.256;2023-08-06T04:45:49;7.03;;;1.35;;
57225;SDS011;43082;43.568;22.256;2023-08-06T04:48:15;5.07;;;1.60;;
57225;SDS011;43082;43.568;22.256;2023-08-06T04:50:44;4.57;;;1.17;;
57225;SDS011;43082;43.568;22.256;2023-08-06T04:53:10;3.85;;;1.40;;
57225;SDS011;43082;43.568;22.256;2023-08-06T04:55:36;4.28;;;1.58;;
57225;SDS011;43082;43.568;22.256;2023-08-06T04:58:01;3.85;;;1.30;;
57225;SDS011;43082;43.568;22.256;2023-08-06T05:00:27;4.45;;;1.02;;
57225;SDS011;43082;43.568;22.256;2023-08-06T05:02:52;6.35;;;1.38;;
57225;SDS011;43082;43.568;22.256;2023-08-06T05:05:18;5.75;;;1.70;;
57225;SDS011;43082;43.568;22.256;2023-08-06T05:07:43;5.32;;;1.80;;
57225;SDS011;43082;43.568;22.256;2023-08-06T05:10:10;5.13;;;1.60;;
57225;SDS011;43082;43.568;22.256;2023-08-06T05:12:35;5.93;;;1.92;;
57225;SDS011;43082;43.568;22.256;2023-08-06T05:15:01;4.03;;;1.48;;
57225;SDS011;43082;43.568;22.256;2023-08-06T05:17:26;7.57;;;1.50;;
57225;SDS011;43082;43.568;22.256;2023-08-06T05:19:52;4.93;;;1.45;;
57225;SDS011;43082;43.568;22.256;2023-08-06T05:22:17;4.07;;;1.23;;
57225;SDS011;43082;43.568;22.256;2023-08-06T05:24:43;3.42;;;1.38;;
57225;SDS011;43082;43.568;22.256;2023-08-06T05:27:08;3.28;;;1.27;;
57225;SDS011;43082;43.568;22.256;2023-08-06T05:29:33;3.20;;;1.10;;
57225;SDS011;43082;43.568;22.256;2023-08-06T05:31:59;5.97;;;1.63;;
57225;SDS011;43082;43.568;22.256;2023-08-06T05:34:24;5.07;;;1.27;;
57225;SDS011;43082;43.568;22.256;2023-08-06T05:36:50;4.57;;;1.10;;
57225;SDS011;43082;43.568;22.256;2023-08-06T05:39:15;5.47;;;1.23;;
57225;SDS011;43082;43.568;22.256;2023-08-06T05:41:41;3.17;;;1.20;;
57225;SDS011;43082;43.568;22.256;2023-08-06T05:44:06;4.03;;;1.05;;
57225;SDS011;43082;43.568;22.256;2023-08-06T05:46:32;4.20;;;1.38;;
57225;SDS011;43082;43.568;22.256;2023-08-06T05:48:57;2.30;;;1.02;;
57225;SDS011;43082;43.568;22.256;2023-08-06T05:51:22;3.50;;;1.02;;
57225;SDS011;43082;43.568;22.256;2023-08-06T05:53:48;3.08;;;1.20;;
57225;SDS011;43082;43.568;22.256;2023-08-06T05:56:15;2.72;;;1.17;;
57225;SDS011;43082;43.568;22.256;2023-08-06T05:58:41;3.10;;;1.17;;
57225;SDS011;43082;43.568;22.256;2023-08-06T06:01:06;3.42;;;1.20;;
57225;SDS011;43082;43.568;22.256;2023-08-06T06:03:31;4.78;;;1.50;;
57225;SDS011;43082;43.568;22.256;2023-08-06T06:05:57;2.45;;;1.08;;
57225;SDS011;43082;43.568;22.256;2023-08-06T06:08:23;3.58;;;1.20;;
57225;SDS011;43082;43.568;22.256;2023-08-06T06:10:48;3.15;;;1.10;;
57225;SDS011;43082;43.568;22.256;2023-08-06T06:13:13;3.10;;;1.20;;
57225;SDS011;43082;43.568;22.256;2023-08-06T06:15:39;4.35;;;1.35;;
57225;SDS011;43082;43.568;22.256;2023-08-06T06:18:04;3.78;;;1.30;;
57225;SDS011;43082;43.568;22.256;2023-08-06T06:20:31;4.05;;;1.23;;
57225;SDS011;43082;43.568;22.256;2023-08-06T06:22:57;3.42;;;1.30;;
57225;SDS011;43082;43.568;22.256;2023-08-06T06:25:23;2.97;;;1.20;;
57225;SDS011;43082;43.568;22.256;2023-08-06T06:27:48;13.02;;;1.80;;
57225;SDS011;43082;43.568;22.256;2023-08-06T06:30:14;3.42;;;1.13;;
57225;SDS011;43082;43.568;22.256;2023-08-06T06:32:39;3.42;;;1.30;;
57225;SDS011;43082;43.568;22.256;2023-08-06T06:35:05;4.35;;;1.17;;
57225;SDS011;43082;43.568;22.256;2023-08-06T06:37:31;3.83;;;1.30;;
57225;SDS011;43082;43.568;22.256;2023-08-06T06:39:57;5.28;;;1.48;;
57225;SDS011;43082;43.568;22.256;2023-08-06T06:42:22;3.45;;;1.20;;
57225;SDS011;43082;43.568;22.256;2023-08-06T06:44:48;4.07;;;1.30;;
57225;SDS011;43082;43.568;22.256;2023-08-06T06:47:13;3.90;;;1.35;;
57225;SDS011;43082;43.568;22.256;2023-08-06T06:49:39;4.28;;;1.40;;
57225;SDS011;43082;43.568;22.256;2023-08-06T06:52:04;3.53;;;1.30;;
57225;SDS011;43082;43.568;22.256;2023-08-06T06:54:30;5.30;;;1.58;;
57225;SDS011;43082;43.568;22.256;2023-08-06T06:56:56;3.95;;;1.50;;
57225;SDS011;43082;43.568;22.256;2023-08-06T06:59:21;3.90;;;1.42;;
57225;SDS011;43082;43.568;22.256;2023-08-06T07:01:46;2.80;;;1.23;;
57225;SDS011;43082;43.568;22.256;2023-08-06T07:04:12;3.58;;;1.33;;
57225;SDS011;43082;43.568;22.256;2023-08-06T07:06:37;5.32;;;1.45;;
57225;SDS011;43082;43.568;22.256;2023-08-06T07:09:03;3.55;;;1.27;;
57225;SDS011;43082;43.568;22.256;2023-08-06T07:11:28;3.45;;;1.40;;
57225;SDS011;43082;43.568;22.256;2023-08-06T07:13:57;4.10;;;1.50;;
57225;SDS011;43082;43.568;22.256;2023-08-06T07:16:24;4.40;;;1.60;;
57225;SDS011;43082;43.568;22.256;2023-08-06T07:18:52;3.78;;;1.58;;
57225;SDS011;43082;43.568;22.256;2023-08-06T07:21:18;7.50;;;1.63;;
57225;SDS011;43082;43.568;22.256;2023-08-06T07:23:44;3.90;;;1.65;;
57225;SDS011;43082;43.568;22.256;2023-08-06T07:26:10;5.05;;;1.55;;
57225;SDS011;43082;43.568;22.256;2023-08-06T07:28:35;4.38;;;1.83;;
57225;SDS011;43082;43.568;22.256;2023-08-06T07:31:02;4.32;;;2.00;;
57225;SDS011;43082;43.568;22.256;2023-08-06T07:33:28;4.95;;;1.90;;
57225;SDS011;43082;43.568;22.256;2023-08-06T07:35:53;6.35;;;1.90;;
57225;SDS011;43082;43.568;22.256;2023-08-06T07:38:19;5.25;;;2.15;;
57225;SDS011;43082;43.568;22.256;2023-08-06T07:40:44;5.47;;;1.65;;
57225;SDS011;43082;43.568;22.256;2023-08-06T07:43:10;4.95;;;1.98;;
57225;SDS011;43082;43.568;22.256;2023-08-06T07:45:36;4.70;;;2.03;;
57225;SDS011;43082;43.568;22.256;2023-08-06T07:48:02;4.95;;;1.90;;
57225;SDS011;43082;43.568;22.256;2023-08-06T07:50:28;6.57;;;2.55;;
57225;SDS011;43082;43.568;22.256;2023-08-06T07:52:53;7.55;;;2.30;;
57225;SDS011;43082;43.568;22.256;2023-08-06T07:55:19;4.70;;;1.90;;
57225;SDS011;43082;43.568;22.256;2023-08-06T07:57:44;6.00;;;1.90;;
57225;SDS011;43082;43.568;22.256;2023-08-06T08:00:10;7.60;;;1.70;;
57225;SDS011;43082;43.568;22.256;2023-08-06T08:02:36;7.47;;;3.78;;
57225;SDS011;43082;43.568;22.256;2023-08-06T08:05:02;4.65;;;2.05;;
57225;SDS011;43082;43.568;22.256;2023-08-06T08:07:27;4.55;;;1.95;;
57225;SDS011;43082;43.568;22.256;2023-08-06T08:09:55;5.43;;;2.30;;
57225;SDS011;43082;43.568;22.256;2023-08-06T08:12:21;4.57;;;1.80;;
57225;SDS011;43082;43.568;22.256;2023-08-06T08:14:46;4.75;;;1.88;;
57225;SDS011;43082;43.568;22.256;2023-08-06T08:17:12;4.30;;;2.30;;
57225;SDS011;43082;43.568;22.256;2023-08-06T08:19:37;4.75;;;2.00;;
57225;SDS011;43082;43.568;22.256;2023-08-06T08:22:03;5.25;;;2.17;;
57225;SDS011;43082;43.568;22.256;2023-08-06T08:24:28;7.20;;;2.25;;
57225;SDS011;43082;43.568;22.256;2023-08-06T08:26:55;5.70;;;2.20;;
57225;SDS011;43082;43.568;22.256;2023-08-06T08:29:21;5.53;;;2.28;;
57225;SDS011;43082;43.568;22.256;2023-08-06T08:31:47;6.63;;;2.67;;
57225;SDS011;43082;43.568;22.256;2023-08-06T08:34:14;7.65;;;4.53;;
57225;SDS011;43082;43.568;22.256;2023-08-06T08:36:40;5.20;;;2.25;;
57225;SDS011;43082;43.568;22.256;2023-08-06T08:39:06;5.47;;;2.58;;
57225;SDS011;43082;43.568;22.256;2023-08-06T08:41:31;9.35;;;1.90;;
57225;SDS011;43082;43.568;22.256;2023-08-06T08:43:58;4.97;;;2.33;;
57225;SDS011;43082;43.568;22.256;2023-08-06T08:46:31;4.47;;;1.85;;
57225;SDS011;43082;43.568;22.256;2023-08-06T08:48:57;5.75;;;2.20;;
57225;SDS011;43082;43.568;22.256;2023-08-06T08:51:25;4.45;;;2.00;;
57225;SDS011;43082;43.568;22.256;2023-08-06T08:53:52;6.50;;;2.15;;
57225;SDS011;43082;43.568;22.256;2023-08-06T08:56:21;5.10;;;2.22;;
57225;SDS011;43082;43.568;22.256;2023-08-06T08:58:47;6.82;;;2.40;;
57225;SDS011;43082;43.568;22.256;2023-08-06T09:01:13;5.93;;;1.83;;
57225;SDS011;43082;43.568;22.256;2023-08-06T09:03:40;4.90;;;2.13;;
57225;SDS011;43082;43.568;22.256;2023-08-06T09:06:06;4.32;;;2.03;;
57225;SDS011;43082;43.568;22.256;2023-08-06T09:08:34;6.93;;;3.85;;
57225;SDS011;43082;43.568;22.256;2023-08-06T09:11:02;4.88;;;2.30;;
57225;SDS011;43082;43.568;22.256;2023-08-06T09:13:28;5.20;;;2.40;;
57225;SDS011;43082;43.568;22.256;2023-08-06T09:15:53;5.63;;;2.15;;
57225;SDS011;43082;43.568;22.256;2023-08-06T09:18:40;5.43;;;2.55;;
57225;SDS011;43082;43.568;22.256;2023-08-06T09:21:05;5.65;;;2.38;;
57225;SDS011;43082;43.568;22.256;2023-08-06T09:23:31;6.53;;;2.92;;
57225;SDS011;43082;43.568;22.256;2023-08-06T09:25:58;6.38;;;3.10;;
57225;SDS011;43082;43.568;22.256;2023-08-06T09:28:23;5.35;;;2.63;;
57225;SDS011;43082;43.568;22.256;2023-08-06T09:30:52;4.43;;;2.20;;
57225;SDS011;43082;43.568;22.256;2023-08-06T09:33:20;5.80;;;3.08;;
57225;SDS011;43082;43.568;22.256;2023-08-06T09:35:49;5.43;;;2.10;;
57225;SDS011;43082;43.568;22.256;2023-08-06T09:38:14;5.57;;;2.30;;
57225;SDS011;43082;43.568;22.256;2023-08-06T09:40:40;7.15;;;4.07;;
57225;SDS011;43082;43.568;22.256;2023-08-06T09:43:05;12.82;;;9.13;;
57225;SDS011;43082;43.568;22.256;2023-08-06T09:45:32;6.57;;;3.17;;
57225;SDS011;43082;43.568;22.256;2023-08-06T09:47:59;6.97;;;3.13;;
57225;SDS011;43082;43.568;22.256;2023-08-06T09:50:29;5.25;;;2.95;;
57225;SDS011;43082;43.568;22.256;2023-08-06T09:53:01;6.35;;;2.80;;
57225;SDS011;43082;43.568;22.256;2023-08-06T09:55:28;5.65;;;2.88;;
57225;SDS011;43082;43.568;22.256;2023-08-06T09:57:53;5.43;;;2.50;;
57225;SDS011;43082;43.568;22.256;2023-08-06T10:00:19;6.35;;;2.80;;
57225;SDS011;43082;43.568;22.256;2023-08-06T10:02:45;5.97;;;2.88;;
57225;SDS011;43082;43.568;22.256;2023-08-06T10:05:12;6.30;;;2.67;;
57225;SDS011;43082;43.568;22.256;2023-08-06T10:07:38;5.50;;;2.92;;
57225;SDS011;43082;43.568;22.256;2023-08-06T10:10:04;5.88;;;2.60;;
57225;SDS011;43082;43.568;22.256;2023-08-06T10:12:34;5.78;;;3.08;;
57225;SDS011;43082;43.568;22.256;2023-08-06T10:15:04;5.90;;;2.90;;
57225;SDS011;43082;43.568;22.256;2023-08-06T10:17:31;9.43;;;3.25;;
57225;SDS011;43082;43.568;22.256;2023-08-06T10:19:58;5.53;;;3.10;;
57225;SDS011;43082;43.568;22.256;2023-08-06T10:22:24;9.43;;;5.88;;
57225;SDS011;43082;43.568;22.256;2023-08-06T10:24:55;6.20;;;3.20;;
57225;SDS011;43082;43.568;22.256;2023-08-06T10:40:35;5.97;;;3.15;;
57225;SDS011;43082;43.568;22.256;2023-08-06T10:43:34;6.63;;;3.45;;
57225;SDS011;43082;43.568;22.256;2023-08-06T10:46:03;7.28;;;3.25;;
57225;SDS011;43082;43.568;22.256;2023-08-06T10:48:36;6.80;;;2.90;;
57225;SDS011;43082;43.568;22.256;2023-08-06T10:51:10;5.43;;;2.85;;
57225;SDS011;43082;43.568;22.256;2023-08-06T10:53:37;7.47;;;3.03;;
57225;SDS011;43082;43.568;22.256;2023-08-06T10:56:16;6.00;;;3.00;;
57225;SDS011;43082;43.568;22.256;2023-08-06T10:58:44;5.43;;;2.65;;
57225;SDS011;43082;43.568;22.256;2023-08-06T11:01:11;6.45;;;3.13;;
57225;SDS011;43082;43.568;22.256;2023-08-06T11:03:37;5.82;;;2.72;;
57225;SDS011;43082;43.568;22.256;2023-08-06T11:06:03;6.65;;;3.47;;
57225;SDS011;43082;43.568;22.256;2023-08-06T11:08:33;6.65;;;3.40;;
57225;SDS011;43082;43.568;22.256;2023-08-06T11:11:15;6.13;;;3.35;;
57225;SDS011;43082;43.568;22.256;2023-08-06T11:13:47;5.82;;;3.35;;
57225;SDS011;43082;43.568;22.256;2023-08-06T11:16:14;5.47;;;3.05;;
57225;SDS011;43082;43.568;22.256;2023-08-06T11:18:41;7.22;;;4.18;;
57225;SDS011;43082;43.568;22.256;2023-08-06T11:21:07;7.68;;;4.72;;
57225;SDS011;43082;43.568;22.256;2023-08-06T11:23:33;6.72;;;3.80;;
57225;SDS011;43082;43.568;22.256;2023-08-06T11:25:59;6.90;;;3.83;;
57225;SDS011;43082;43.568;22.256;2023-08-06T11:28:24;7.50;;;3.92;;
57225;SDS011;43082;43.568;22.256;2023-08-06T11:30:50;11.77;;;4.30;;
57225;SDS011;43082;43.568;22.256;2023-08-06T11:33:22;9.20;;;4.15;;
57225;SDS011;43082;43.568;22.256;2023-08-06T11:35:51;13.80;;;6.20;;
57225;SDS011;43082;43.568;22.256;2023-08-06T11:38:18;13.40;;;6.38;;
57225;SDS011;43082;43.568;22.256;2023-08-06T11:40:46;10.75;;;5.63;;
57225;SDS011;43082;43.568;22.256;2023-08-06T11:43:12;9.40;;;5.72;;
57225;SDS011;43082;43.568;22.256;2023-08-06T11:45:38;12.13;;;5.65;;
57225;SDS011;43082;43.568;22.256;2023-08-06T11:48:03;8.85;;;6.03;;
57225;SDS011;43082;43.568;22.256;2023-08-06T11:50:30;8.35;;;4.90;;
57225;SDS011;43082;43.568;22.256;2023-08-06T11:52:59;7.35;;;4.97;;
57225;SDS011;43082;43.568;22.256;2023-08-06T11:55:26;8.57;;;5.47;;
57225;SDS011;43082;43.568;22.256;2023-08-06T11:57:53;9.40;;;5.00;;
57225;SDS011;43082;43.568;22.256;2023-08-06T12:00:19;9.38;;;5.03;;
57225;SDS011;43082;43.568;22.256;2023-08-06T12:02:47;8.50;;;4.90;;
57225;SDS011;43082;43.568;22.256;2023-08-06T12:07:42;7.00;;;4.82;;
57225;SDS011;43082;43.568;22.256;2023-08-06T12:10:09;8.18;;;4.50;;
57225;SDS011;43082;43.568;22.256;2023-08-06T12:12:34;6.90;;;4.25;;
57225;SDS011;43082;43.568;22.256;2023-08-06T12:15:00;6.40;;;4.18;;
57225;SDS011;43082;43.568;22.256;2023-08-06T12:17:27;7.13;;;5.00;;
57225;SDS011;43082;43.568;22.256;2023-08-06T12:19:53;7.85;;;5.22;;
57225;SDS011;43082;43.568;22.256;2023-08-06T12:22:19;7.70;;;5.55;;
57225;SDS011;43082;43.568;22.256;2023-08-06T12:24:45;6.88;;;4.45;;
57225;SDS011;43082;43.568;22.256;2023-08-06T12:27:11;8.10;;;4.20;;
57225;SDS011;43082;43.568;22.256;2023-08-06T12:29:40;8.85;;;4.57;;
57225;SDS011;43082;43.568;22.256;2023-08-06T12:32:07;6.45;;;4.38;;
57225;SDS011;43082;43.568;22.256;2023-08-06T12:34:32;6.45;;;4.15;;
57225;SDS011;43082;43.568;22.256;2023-08-06T12:36:58;7.15;;;4.50;;
57225;SDS011;43082;43.568;22.256;2023-08-06T12:39:23;7.80;;;5.00;;
57225;SDS011;43082;43.568;22.256;2023-08-06T12:41:49;7.55;;;4.55;;
57225;SDS011;43082;43.568;22.256;2023-08-06T12:44:15;6.82;;;4.53;;
57225;SDS011;43082;43.568;22.256;2023-08-06T12:46:40;9.80;;;7.75;;
57225;SDS011;43082;43.568;22.256;2023-08-06T12:49:05;8.00;;;4.88;;
57225;SDS011;43082;43.568;22.256;2023-08-06T12:51:31;7.95;;;5.53;;
57225;SDS011;43082;43.568;22.256;2023-08-06T12:53:58;8.05;;;5.18;;
57225;SDS011;43082;43.568;22.256;2023-08-06T12:56:25;7.57;;;4.95;;
57225;SDS011;43082;43.568;22.256;2023-08-06T12:58:51;10.70;;;6.90;;
57225;SDS011;43082;43.568;22.256;2023-08-06T13:01:17;6.90;;;4.38;;
57225;SDS011;43082;43.568;22.256;2023-08-06T13:03:42;6.88;;;4.55;;
57225;SDS011;43082;43.568;22.256;2023-08-06T13:06:08;7.82;;;4.85;;
57225;SDS011;43082;43.568;22.256;2023-08-06T13:08:34;6.82;;;4.78;;
57225;SDS011;43082;43.568;22.256;2023-08-06T13:11:00;8.88;;;4.60;;
57225;SDS011;43082;43.568;22.256;2023-08-06T13:13:26;9.80;;;6.13;;
57225;SDS011;43082;43.568;22.256;2023-08-06T13:15:52;8.38;;;5.55;;
57225;SDS011;43082;43.568;22.256;2023-08-06T13:18:17;7.88;;;4.97;;
57225;SDS011;43082;43.568;22.256;2023-08-06T13:20:43;9.13;;;5.70;;
57225;SDS011;43082;43.568;22.256;2023-08-06T13:23:08;8.98;;;5.55;;
57225;SDS011;43082;43.568;22.256;2023-08-06T13:25:34;7.25;;;5.03;;
57225;SDS011;43082;43.568;22.256;2023-08-06T13:28:02;7.50;;;5.22;;
57225;SDS011;43082;43.568;22.256;2023-08-06T13:30:28;8.73;;;5.25;;
57225;SDS011;43082;43.568;22.256;2023-08-06T13:32:53;8.05;;;5.57;;
57225;SDS011;43082;43.568;22.256;2023-08-06T13:35:21;9.23;;;6.53;;
57225;SDS011;43082;43.568;22.256;2023-08-06T13:37:47;7.68;;;5.50;;
57225;SDS011;43082;43.568;22.256;2023-08-06T13:40:13;9.32;;;5.38;;
57225;SDS011;43082;43.568;22.256;2023-08-06T13:42:38;8.75;;;5.50;;
57225;SDS011;43082;43.568;22.256;2023-08-06T13:45:05;9.10;;;5.40;;
57225;SDS011;43082;43.568;22.256;2023-08-06T13:47:31;10.05;;;4.90;;
57225;SDS011;43082;43.568;22.256;2023-08-06T13:49:56;6.97;;;4.40;;
57225;SDS011;43082;43.568;22.256;2023-08-06T13:52:22;9.57;;;6.60;;
57225;SDS011;43082;43.568;22.256;2023-08-06T13:54:47;8.88;;;4.97;;
57225;SDS011;43082;43.568;22.256;2023-08-06T13:57:13;7.82;;;4.68;;
57225;SDS011;43082;43.568;22.256;2023-08-06T13:59:38;7.78;;;4.53;;
57225;SDS011;43082;43.568;22.256;2023-08-06T14:02:04;8.13;;;4.32;;
57225;SDS011;43082;43.568;22.256;2023-08-06T14:04:29;6.97;;;3.65;;
57225;SDS011;43082;43.568;22.256;2023-08-06T14:06:55;7.13;;;3.72;;
57225;SDS011;43082;43.568;22.256;2023-08-06T14:09:20;6.10;;;3.60;;
57225;SDS011;43082;43.568;22.256;2023-08-06T14:11:45;5.93;;;3.38;;
57225;SDS011;43082;43.568;22.256;2023-08-06T14:14:11;6.43;;;3.42;;
57225;SDS011;43082;43.568;22.256;2023-08-06T14:16:37;5.80;;;3.28;;
57225;SDS011;43082;43.568;22.256;2023-08-06T14:19:02;5.38;;;3.00;;
57225;SDS011;43082;43.568;22.256;2023-08-06T14:21:28;6.78;;;3.40;;
57225;SDS011;43082;43.568;22.256;2023-08-06T14:23:54;5.22;;;2.78;;
57225;SDS011;43082;43.568;22.256;2023-08-06T14:26:20;6.65;;;3.08;;
57225;SDS011;43082;43.568;22.256;2023-08-06T14:28:46;5.70;;;3.35;;
57225;SDS011;43082;43.568;22.256;2023-08-06T14:31:11;6.00;;;3.35;;
57225;SDS011;43082;43.568;22.256;2023-08-06T14:33:37;6.43;;;3.42;;
57225;SDS011;43082;43.568;22.256;2023-08-06T14:36:03;6.78;;;3.30;;
57225;SDS011;43082;43.568;22.256;2023-08-06T14:38:28;7.57;;;3.88;;
57225;SDS011;43082;43.568;22.256;2023-08-06T14:40:54;6.88;;;3.75;;
57225;SDS011;43082;43.568;22.256;2023-08-06T14:43:19;5.65;;;3.25;;
57225;SDS011;43082;43.568;22.256;2023-08-06T14:45:45;6.47;;;3.30;;
57225;SDS011;43082;43.568;22.256;2023-08-06T14:48:10;6.55;;;2.92;;
57225;SDS011;43082;43.568;22.256;2023-08-06T14:50:36;5.47;;;3.00;;